CheckWX is a tool to help pilots better visualize weather data.  It is not intended as a substitute for an official pre-flight weather briefing.

00:38:34 UTC

KAPN METAR
Alpena County Regional Airport
Alpena, Michigan, USA
Current

45 mins ago

KAPN 262354Z AUTO 00000KT 10SM CLR 00/M04 A3038 RMK AO2 SLP299 T00001044 10061 20000 58005
Observed
Mar-26 @ 23:54 UTC
Visibility
10 SM
Flight Rules
VFR
Cloud Levels
  • Clear skies
Temperature
C / 32°F
Dewpoint
-4°C / 25°F
Humidity
75%
Altimeter
30.38" Hg
Pressure
1029.9 hPa
Previous

2 hours ago

KAPN 262254Z AUTO 09009KT 10SM CLR 01/M04 A3039 RMK AO2 SLP302 T00111044
Observed
Mar-26 @ 22:54 UTC
Wind
  • 090° at 9 KTS
Visibility
10 SM
Flight Rules
VFR
Cloud Levels
  • Clear skies
Temperature
C / 34°F
Dewpoint
-4°C / 25°F
Humidity
70%
Altimeter
30.39" Hg
Pressure
1030.2 hPa
Previous

3 hours ago

KAPN 262154Z AUTO 09010KT 10SM CLR 02/M06 A3039 RMK AO2 SLP303 T00221061
Observed
Mar-26 @ 21:54 UTC
Wind
  • 090° at 10 KTS
Visibility
10 SM
Flight Rules
VFR
Cloud Levels
  • Clear skies
Temperature
C / 36°F
Dewpoint
-6°C / 21°F
Humidity
56%
Altimeter
30.39" Hg
Pressure
1030.3 hPa